Time;durP1;ratioP1;P1;durP2;ratioP2;P2;SDS_P1;SDS_P2;PMS_P1;PMS_P2;Temp;Humidity;BMP_temperature;BMP_pressure;BME280_temperature;BME280_humidity;BME280_pressure;Samples;Min_cycle;Max_cycle;Signal;HPM_P1;HPM_P2
2020/12/14 00:02:21;;;;;;;24.63;18.60;;;5.70;99.90;;;;;;4953530;29;20310;-45
2020/12/14 00:04:48;;;;;;;21.13;18.35;;;5.70;99.90;;;;;;4953513;29;20215;-47
2020/12/14 00:07:15;;;;;;;18.67;16.60;;;5.60;99.90;;;;;;4954066;29;20401;-52
2020/12/14 00:09:42;;;;;;;17.33;14.93;;;5.60;99.90;;;;;;4953643;28;20298;-45
2020/12/14 00:12:10;;;;;;;19.57;13.87;;;5.50;99.90;;;;;;4954409;28;20232;-41
2020/12/14 00:14:37;;;;;;;15.45;13.20;;;5.50;99.90;;;;;;4957271;28;20223;-42
2020/12/14 00:17:05;;;;;;;13.80;12.20;;;5.40;99.90;;;;;;4957049;29;20243;-45
2020/12/14 00:19:33;;;;;;;13.03;11.73;;;5.40;99.90;;;;;;4956913;29;20228;-44
2020/12/14 00:22:00;;;;;;;14.20;12.73;;;5.30;99.90;;;;;;4957325;28;20318;-45
2020/12/14 00:24:27;;;;;;;20.97;15.97;;;5.30;99.90;;;;;;4957322;29;20243;-44
2020/12/14 00:26:54;;;;;;;17.13;14.13;;;5.20;99.90;;;;;;4957074;29;20251;-44
2020/12/14 00:29:22;;;;;;;47.30;32.63;;;5.10;99.90;;;;;;4956863;28;20280;-44
2020/12/14 00:31:52;;;;;;;21.87;16.70;;;5.00;99.90;;;;;;4956929;29;20641;-42
2020/12/14 00:34:20;;;;;;;16.63;12.90;;;4.90;99.90;;;;;;4957023;29;20529;-44
2020/12/14 00:37:02;;;;;;;29.87;17.37;;;4.90;99.90;;;;;;4956996;29;20219;-45
2020/12/14 00:39:29;;;;;;;19.83;15.37;;;4.80;99.90;;;;;;4956620;29;20232;-44
2020/12/14 00:41:56;;;;;;;19.53;14.43;;;4.80;99.90;;;;;;4956922;29;20671;-41
2020/12/14 00:44:23;;;;;;;23.93;16.47;;;4.80;99.90;;;;;;4956747;29;20673;-43
2020/12/14 00:46:50;;;;;;;26.43;18.97;;;4.70;99.90;;;;;;4956486;29;21036;-44
2020/12/14 00:49:18;;;;;;;22.30;16.53;;;4.70;99.90;;;;;;4956502;29;20295;-42
2020/12/14 00:51:45;;;;;;;20.97;14.60;;;4.60;99.90;;;;;;4956374;29;20319;-42
2020/12/14 00:54:13;;;;;;;18.03;13.40;;;4.60;99.90;;;;;;4956480;28;20626;-42
2020/12/14 00:56:40;;;;;;;22.97;16.43;;;4.60;99.90;;;;;;4956420;29;20251;-42
2020/12/14 00:59:07;;;;;;;16.93;12.50;;;4.70;99.90;;;;;;4956178;29;20273;-42
2020/12/14 01:01:34;;;;;;;27.40;19.07;;;4.60;99.90;;;;;;4956268;29;20218;-45
2020/12/14 01:04:02;;;;;;;21.87;16.00;;;4.50;99.90;;;;;;4956414;29;20270;-45
2020/12/14 01:06:29;;;;;;;27.57;18.37;;;4.50;99.90;;;;;;4956315;28;20306;-41
2020/12/14 01:08:56;;;;;;;49.20;33.93;;;4.40;99.90;;;;;;4956192;29;20693;-47
2020/12/14 01:11:28;;;;;;;28.30;19.13;;;4.40;99.90;;;;;;4956129;28;20607;-48
2020/12/14 01:13:55;;;;;;;39.43;23.10;;;4.40;99.90;;;;;;4956378;29;20302;-48
2020/12/14 01:16:23;;;;;;;34.97;20.70;;;4.40;99.90;;;;;;4956282;28;20282;-47
2020/12/14 01:18:50;;;;;;;39.30;20.47;;;4.30;99.90;;;;;;4955968;29;20713;-42
2020/12/14 01:21:21;;;;;;;29.40;17.23;;;4.30;99.90;;;;;;4956124;29;20235;-44
2020/12/14 01:23:48;;;;;;;20.77;15.80;;;4.30;99.90;;;;;;4956008;28;20210;-43
2020/12/14 01:26:15;;;;;;;15.83;11.80;;;4.30;99.90;;;;;;4955953;29;20215;-44
2020/12/14 01:28:43;;;;;;;14.33;12.63;;;4.30;99.90;;;;;;4957636;29;20302;-43
2020/12/14 01:31:10;;;;;;;14.13;11.43;;;4.30;99.90;;;;;;4955794;28;20212;-42
2020/12/14 01:33:37;;;;;;;11.10;10.00;;;4.30;99.90;;;;;;4955939;29;20302;-42
2020/12/14 01:36:04;;;;;;;13.53;10.13;;;4.30;99.90;;;;;;4955816;29;20232;-42
2020/12/14 01:38:31;;;;;;;11.13;10.03;;;4.30;99.90;;;;;;4955609;29;20231;-43
2020/12/14 01:40:58;;;;;;;10.73;9.73;;;4.30;99.90;;;;;;4956059;29;20632;-42
2020/12/14 01:43:25;;;;;;;9.13;8.33;;;4.30;99.90;;;;;;4955598;29;20690;-42
2020/12/14 01:45:53;;;;;;;9.77;8.57;;;4.20;99.90;;;;;;4955493;29;20217;-45
2020/12/14 01:48:24;;;;;;;12.33;11.03;;;4.20;99.90;;;;;;4955717;29;20211;-46
2020/12/14 01:50:51;;;;;;;10.90;9.90;;;4.20;99.90;;;;;;4955251;28;20301;-49
2020/12/14 01:53:21;;;;;;;10.70;9.57;;;4.10;99.90;;;;;;4955514;29;20218;-45
2020/12/14 01:55:50;;;;;;;9.17;8.30;;;4.10;99.90;;;;;;4955658;29;20242;-47
2020/12/14 01:58:17;;;;;;;10.00;9.00;;;4.10;99.90;;;;;;4955370;29;20242;-46
2020/12/14 02:00:44;;;;;;;10.57;9.37;;;4.10;99.90;;;;;;4955344;29;20215;-47
2020/12/14 02:03:12;;;;;;;9.47;8.57;;;4.10;99.90;;;;;;4955338;29;20218;-50
2020/12/14 02:05:39;;;;;;;9.97;8.97;;;4.10;99.90;;;;;;4955206;29;20262;-42
2020/12/14 02:08:08;;;;;;;9.17;8.27;;;4.20;99.90;;;;;;4955240;29;20247;-42
2020/12/14 02:10:35;;;;;;;10.20;9.23;;;4.20;99.90;;;;;;4955197;29;20219;-42
2020/12/14 02:13:02;;;;;;;8.97;8.10;;;4.20;99.90;;;;;;4955262;29;20302;-42
2020/12/14 02:15:29;;;;;;;9.27;8.37;;;4.20;99.90;;;;;;4955081;28;20234;-42
2020/12/14 02:17:56;;;;;;;8.20;7.50;;;4.10;99.90;;;;;;4954966;29;20311;-43
2020/12/14 02:20:25;;;;;;;9.43;7.90;;;4.00;99.90;;;;;;4954881;28;20693;-42
2020/12/14 02:22:51;;;;;;;9.13;8.33;;;4.00;99.90;;;;;;4954858;29;20681;-41
2020/12/14 02:25:19;;;;;;;8.67;7.83;;;3.90;99.90;;;;;;4954734;29;20226;-43
2020/12/14 02:27:46;;;;;;;8.40;7.60;;;3.90;99.90;;;;;;4954947;29;20545;-43
2020/12/14 02:30:15;;;;;;;8.87;8.00;;;4.00;99.90;;;;;;4954893;29;20233;-46
2020/12/14 02:32:42;;;;;;;8.07;7.37;;;4.00;99.90;;;;;;4954843;28;20215;-42
2020/12/14 02:35:09;;;;;;;7.50;6.87;;;4.00;99.90;;;;;;4953794;28;20254;-45
2020/12/14 02:37:36;;;;;;;8.77;7.77;;;4.00;99.90;;;;;;4954769;28;20212;-41
2020/12/14 02:40:04;;;;;;;9.03;8.13;;;4.00;99.90;;;;;;4954519;28;20740;-42
2020/12/14 02:42:31;;;;;;;8.00;7.30;;;3.90;99.90;;;;;;4954644;28;20294;-42
2020/12/14 02:44:58;;;;;;;8.17;7.47;;;3.80;99.90;;;;;;4954525;29;20310;-45
2020/12/14 02:47:25;;;;;;;8.37;7.57;;;3.80;99.90;;;;;;4954357;29;20247;-42
2020/12/14 02:49:53;;;;;;;8.05;7.28;;;3.80;99.90;;;;;;4954615;28;20218;-42
2020/12/14 02:52:20;;;;;;;7.90;7.10;;;3.80;99.90;;;;;;4954560;29;20317;-46
2020/12/14 02:54:47;;;;;;;7.00;6.40;;;3.80;99.90;;;;;;4954315;29;20741;-46
2020/12/14 02:57:14;;;;;;;8.97;7.23;;;3.90;99.90;;;;;;4954483;28;20216;-44
2020/12/14 02:59:42;;;;;;;7.50;6.90;;;3.90;99.90;;;;;;4954486;29;20286;-44
2020/12/14 03:02:09;;;;;;;8.57;7.70;;;3.90;99.90;;;;;;4954225;29;20382;-41
2020/12/14 03:04:37;;;;;;;8.23;7.43;;;3.90;99.90;;;;;;4954272;29;20218;-42
2020/12/14 03:07:04;;;;;;;7.80;7.10;;;3.80;99.90;;;;;;4954407;29;20226;-44
2020/12/14 03:09:31;;;;;;;7.97;7.27;;;3.70;99.90;;;;;;4954235;28;20243;-42
2020/12/14 03:12:00;;;;;;;7.97;7.27;;;3.70;99.90;;;;;;4954223;28;20302;-43
2020/12/14 03:14:29;;;;;;;9.93;7.20;;;3.70;99.90;;;;;;4954137;29;20318;-42
2020/12/14 03:16:57;;;;;;;8.20;7.40;;;3.70;99.90;;;;;;4954065;29;20255;-43
2020/12/14 03:19:24;;;;;;;7.43;6.67;;;3.80;99.90;;;;;;4954248;28;20235;-42
2020/12/14 03:21:52;;;;;;;7.50;6.80;;;4.00;99.90;;;;;;4953998;29;20749;-43
2020/12/14 03:24:19;;;;;;;7.80;7.07;;;4.10;99.90;;;;;;4954000;28;20215;-43
2020/12/14 03:26:48;;;;;;;8.00;7.20;;;4.30;99.90;;;;;;4953868;29;20742;-43
2020/12/14 03:29:15;;;;;;;8.30;7.43;;;4.40;99.90;;;;;;4953971;29;20697;-47
2020/12/14 03:31:43;;;;;;;7.80;7.10;;;4.50;99.90;;;;;;4954058;28;20270;-41
2020/12/14 03:34:11;;;;;;;7.37;6.70;;;4.60;99.90;;;;;;4953996;28;20302;-41
2020/12/14 03:36:38;;;;;;;7.73;7.07;;;4.70;99.90;;;;;;4953852;29;20602;-46
2020/12/14 03:39:07;;;;;;;7.17;6.47;;;4.80;99.90;;;;;;4953231;28;20679;-44
2020/12/14 03:41:34;;;;;;;7.47;6.83;;;4.80;99.90;;;;;;4953801;29;20247;-42
2020/12/14 03:44:01;;;;;;;8.73;7.40;;;4.90;99.90;;;;;;4953692;29;20212;-43
2020/12/14 03:46:28;;;;;;;8.37;7.60;;;4.90;99.90;;;;;;4954831;28;20283;-42
2020/12/14 03:48:56;;;;;;;7.33;6.50;;;4.90;99.90;;;;;;4957577;29;20207;-43
2020/12/14 03:51:24;;;;;;;8.10;7.30;;;4.90;99.90;;;;;;4957558;29;20243;-42
2020/12/14 03:53:51;;;;;;;8.93;8.07;;;5.00;99.90;;;;;;4957471;28;20238;-42
2020/12/14 03:56:19;;;;;;;8.07;7.27;;;5.00;99.90;;;;;;4957416;28;20207;-42
2020/12/14 03:58:47;;;;;;;8.50;7.60;;;5.00;99.90;;;;;;4957474;29;20330;-43
2020/12/14 04:01:18;;;;;;;10.50;8.33;;;5.00;99.90;;;;;;4957480;29;20239;-42
2020/12/14 04:03:46;;;;;;;8.30;7.47;;;4.90;99.90;;;;;;4957377;29;20239;-42
2020/12/14 04:06:17;;;;;;;11.03;7.90;;;5.00;99.90;;;;;;4957203;29;20253;-41
2020/12/14 04:08:45;;;;;;;8.53;7.73;;;5.00;99.90;;;;;;4957171;28;20299;-41
2020/12/14 04:11:12;;;;;;;9.20;7.85;;;4.90;99.90;;;;;;4957323;28;20294;-43
2020/12/14 04:13:39;;;;;;;9.23;6.93;;;4.90;99.90;;;;;;4957214;29;20614;-42
2020/12/14 04:16:07;;;;;;;8.90;7.70;;;4.80;99.90;;;;;;4957174;29;20211;-44
2020/12/14 04:18:34;;;;;;;9.23;8.30;;;4.70;99.90;;;;;;4956805;29;20212;-43
2020/12/14 04:21:01;;;;;;;15.43;8.17;;;4.70;99.90;;;;;;4956937;29;20613;-43
2020/12/14 04:23:28;;;;;;;13.53;7.70;;;4.70;99.90;;;;;;4956935;29;20208;-44
2020/12/14 04:25:57;;;;;;;9.83;6.47;;;4.70;99.90;;;;;;4956912;29;20301;-42
2020/12/14 04:28:24;;;;;;;10.23;6.23;;;4.60;99.90;;;;;;4956935;29;20413;-42
2020/12/14 04:30:51;;;;;;;9.67;6.30;;;4.70;99.90;;;;;;4956876;29;20286;-41
2020/12/14 04:33:19;;;;;;;15.57;6.90;;;4.70;99.90;;;;;;4956727;29;20741;-42
2020/12/14 04:35:46;;;;;;;19.60;6.53;;;4.60;99.90;;;;;;4956579;29;20274;-43
2020/12/14 04:38:13;;;;;;;17.87;7.03;;;4.70;99.90;;;;;;4956824;29;20211;-42
2020/12/14 04:40:40;;;;;;;14.83;6.70;;;4.60;99.90;;;;;;4956651;29;20270;-42
2020/12/14 04:43:09;;;;;;;16.03;6.67;;;4.60;99.90;;;;;;4956697;29;20302;-42
2020/12/14 04:45:36;;;;;;;13.17;6.33;;;4.60;99.90;;;;;;4956444;29;20547;-44
2020/12/14 04:48:04;;;;;;;10.03;7.00;;;4.50;99.90;;;;;;4956528;29;20588;-43
2020/12/14 04:50:31;;;;;;;11.70;6.73;;;4.50;99.90;;;;;;4956308;28;20627;-43
2020/12/14 04:53:03;;;;;;;11.97;6.40;;;4.40;99.90;;;;;;4956344;29;20215;-45
2020/12/14 04:55:34;;;;;;;17.37;6.83;;;4.40;99.90;;;;;;4956492;29;20642;-43
2020/12/14 04:58:04;;;;;;;10.63;6.00;;;4.40;99.90;;;;;;4955726;28;20266;-43
2020/12/14 05:00:32;;;;;;;10.37;6.57;;;4.40;99.90;;;;;;4956295;29;20263;-43
2020/12/14 05:02:59;;;;;;;12.50;6.47;;;4.40;99.90;;;;;;4956125;28;20216;-43
2020/12/14 05:05:26;;;;;;;8.47;6.10;;;4.40;99.90;;;;;;4956146;28;20298;-43
2020/12/14 05:07:54;;;;;;;8.80;5.83;;;4.40;99.90;;;;;;4956145;29;20432;-43
2020/12/14 05:10:23;;;;;;;11.30;5.93;;;4.40;99.90;;;;;;4956058;28;20224;-44
2020/12/14 05:12:51;;;;;;;6.67;5.40;;;4.40;99.90;;;;;;4956101;28;20208;-45
2020/12/14 05:15:23;;;;;;;9.60;5.53;;;4.40;99.90;;;;;;4955929;28;20218;-44
2020/12/14 05:17:53;;;;;;;11.57;5.50;;;4.40;99.90;;;;;;4956037;29;20215;-45
2020/12/14 05:20:21;;;;;;;12.53;5.30;;;4.40;99.90;;;;;;4955701;29;20318;-46
2020/12/14 05:22:59;;;;;;;7.97;5.70;;;4.40;99.90;;;;;;4955758;29;20266;-47
2020/12/14 05:25:26;;;;;;;6.13;4.97;;;4.40;99.90;;;;;;4955613;28;20310;-45
2020/12/14 05:28:01;;;;;;;9.87;4.60;;;4.30;99.90;;;;;;4955474;29;20211;-44
2020/12/14 05:30:36;;;;;;;5.97;4.90;;;4.30;99.90;;;;;;4955659;28;20213;-43
2020/12/14 05:33:04;;;;;;;8.83;6.07;;;4.30;99.90;;;;;;4955461;29;20325;-44
2020/12/14 05:35:33;;;;;;;10.13;8.83;;;4.30;99.90;;;;;;4955629;29;20211;-44
2020/12/14 05:38:21;;;;;;;12.67;5.40;;;4.30;99.90;;;;;;4955780;28;20294;-43
2020/12/14 05:40:51;;;;;;;10.33;5.00;;;4.30;99.90;;;;;;4955775;29;20370;-43
2020/12/14 05:43:21;;;;;;;5.47;4.93;;;4.30;99.90;;;;;;4955588;29;20243;-46
2020/12/14 05:45:50;;;;;;;46.07;16.37;;;4.30;99.90;;;;;;4955561;29;20242;-42
2020/12/14 05:48:27;;;;;;;13.37;5.13;;;4.30;99.90;;;;;;4955658;29;20646;-44
2020/12/14 05:50:56;;;;;;;11.07;7.47;;;4.30;99.90;;;;;;4955371;28;20239;-43
2020/12/14 05:53:33;;;;;;;19.30;14.57;;;4.40;99.90;;;;;;4955339;29;20705;-43
2020/12/14 05:56:01;;;;;;;12.20;7.47;;;4.30;99.90;;;;;;4955391;29;20298;-44
2020/12/14 05:58:31;;;;;;;26.07;17.90;;;4.20;99.90;;;;;;4955316;29;20258;-43
2020/12/14 06:00:58;;;;;;;9.37;5.73;;;4.20;99.90;;;;;;4955098;29;20590;-42
2020/12/14 06:03:27;;;;;;;15.20;5.87;;;4.10;99.90;;;;;;4955038;29;20211;-44
2020/12/14 06:05:59;;;;;;;33.87;21.17;;;4.10;99.90;;;;;;4955038;29;20702;-50
2020/12/14 06:08:58;;;;;;;22.77;7.20;;;4.10;99.90;;;;;;4955143;28;20298;-42
2020/12/14 06:11:26;;;;;;;16.70;6.43;;;4.10;99.90;;;;;;4955080;29;20247;-43
2020/12/14 06:13:55;;;;;;;12.67;6.83;;;4.10;99.90;;;;;;4954793;29;20211;-44
2020/12/14 06:16:23;;;;;;;21.67;6.77;;;4.10;99.90;;;;;;4954810;29;20309;-43
2020/12/14 06:18:52;;;;;;;24.60;6.13;;;4.00;99.90;;;;;;4954983;29;20294;-43
2020/12/14 06:21:22;;;;;;;12.77;5.27;;;3.90;99.90;;;;;;4954792;29;20746;-43
2020/12/14 06:23:50;;;;;;;20.53;6.70;;;3.90;99.90;;;;;;4954756;29;20338;-43
2020/12/14 06:26:21;;;;;;;15.77;7.10;;;3.80;99.90;;;;;;4954704;28;20235;-43
2020/12/14 06:28:51;;;;;;;20.23;7.20;;;3.80;99.90;;;;;;4955000;28;20238;-43
2020/12/14 06:31:32;;;;;;;44.37;9.03;;;3.80;99.90;;;;;;4954829;29;20211;-43
2020/12/14 06:34:02;;;;;;;33.03;6.23;;;3.80;99.90;;;;;;4954638;29;20217;-43
2020/12/14 06:36:38;;;;;;;20.87;6.20;;;3.80;99.90;;;;;;4954767;29;20305;-43
2020/12/14 06:39:25;;;;;;;27.70;7.00;;;3.80;99.90;;;;;;4954509;29;20570;-43
2020/12/14 06:41:53;;;;;;;25.57;9.47;;;3.80;99.90;;;;;;4954490;29;20739;-42
2020/12/14 06:44:19;;;;;;;24.47;6.40;;;3.80;99.90;;;;;;4954552;29;20298;-42
2020/12/14 06:46:48;;;;;;;11.07;5.57;;;3.80;99.90;;;;;;4954285;28;20230;-43
2020/12/14 06:49:29;;;;;;;24.30;6.83;;;3.80;99.90;;;;;;4954239;28;20583;-43
2020/12/14 06:51:56;;;;;;;20.73;9.53;;;3.80;99.90;;;;;;4954052;28;20266;-42
2020/12/14 06:54:42;;;;;;;21.20;8.67;;;3.70;99.90;;;;;;4954678;29;20330;-43
2020/12/14 06:57:10;;;;;;;15.20;10.83;;;3.70;99.90;;;;;;4953956;28;20215;-43
2020/12/14 06:59:38;;;;;;;17.97;7.20;;;3.70;99.90;;;;;;4953935;28;20231;-43
2020/12/14 07:02:05;;;;;;;13.97;6.93;;;3.60;99.90;;;;;;4954163;28;20374;-44
2020/12/14 07:04:41;;;;;;;21.70;7.30;;;3.60;99.90;;;;;;4954092;29;20211;-41
2020/12/14 07:07:33;;;;;;;28.47;7.80;;;3.50;99.90;;;;;;4954160;29;20246;-41
2020/12/14 07:10:14;;;;;;;11.80;7.07;;;3.50;99.90;;;;;;4953951;29;20230;-44
2020/12/14 07:12:46;;;;;;;7.37;6.57;;;3.50;99.90;;;;;;4954193;29;20303;-42
2020/12/14 07:15:31;;;;;;;10.53;6.77;;;3.50;99.90;;;;;;4954299;29;20249;-41
2020/12/14 07:18:08;;;;;;;8.47;6.03;;;3.50;99.90;;;;;;4954067;28;20646;-42
2020/12/14 07:20:46;;;;;;;12.07;9.70;;;3.50;99.90;;;;;;4953581;28;20321;-42
2020/12/14 07:23:15;;;;;;;22.53;15.83;;;3.50;99.90;;;;;;4953836;29;20721;-41
2020/12/14 07:25:47;;;;;;;14.13;12.63;;;3.50;99.90;;;;;;4954083;29;20215;-42
2020/12/14 07:28:16;;;;;;;20.57;15.87;;;3.50;99.90;;;;;;4953915;29;20222;-43
2020/12/14 07:30:43;;;;;;;9.27;8.13;;;3.50;99.90;;;;;;4953879;29;20207;-42
2020/12/14 07:33:10;;;;;;;19.07;13.27;;;3.50;99.90;;;;;;4953893;29;20222;-42
2020/12/14 07:35:39;;;;;;;25.77;16.47;;;3.50;99.90;;;;;;4954051;28;20237;-42
2020/12/14 07:38:11;;;;;;;9.30;8.30;;;3.50;99.90;;;;;;4953789;29;20663;-43
2020/12/14 07:40:38;;;;;;;26.70;18.23;;;3.50;99.90;;;;;;4953735;29;20231;-41
2020/12/14 07:43:05;;;;;;;8.50;7.70;;;3.50;99.90;;;;;;4953939;29;20223;-44
2020/12/14 07:45:32;;;;;;;11.40;7.23;;;3.50;99.90;;;;;;4954050;29;20314;-43
2020/12/14 07:47:59;;;;;;;8.77;7.77;;;3.50;99.90;;;;;;4953911;29;20262;-42
2020/12/14 07:50:27;;;;;;;6.60;5.90;;;3.50;99.90;;;;;;4953623;29;20705;-41
2020/12/14 07:52:55;;;;;;;9.50;7.30;;;3.50;99.90;;;;;;4953825;29;20215;-42
2020/12/14 07:55:24;;;;;;;8.00;7.20;;;3.60;99.90;;;;;;4953727;28;20266;-41
2020/12/14 07:57:51;;;;;;;10.53;9.43;;;3.60;99.90;;;;;;4953733;29;20682;-42
2020/12/14 08:00:21;;;;;;;9.83;8.60;;;3.70;99.90;;;;;;4953834;29;20231;-44
2020/12/14 08:02:49;;;;;;;6.83;6.20;;;3.70;99.90;;;;;;4953565;29;20241;-43
2020/12/14 08:05:17;;;;;;;10.53;8.40;;;3.70;99.90;;;;;;4953606;29;20233;-42
2020/12/14 08:07:46;;;;;;;8.20;7.40;;;3.80;99.90;;;;;;4953631;29;20298;-43
2020/12/14 08:10:21;;;;;;;8.87;7.93;;;3.80;99.90;;;;;;4953494;28;20234;-44
2020/12/14 08:12:48;;;;;;;8.20;7.40;;;3.90;99.90;;;;;;4953307;29;20306;-43
2020/12/14 08:15:18;;;;;;;8.60;7.70;;;3.90;99.90;;;;;;4953392;29;20599;-41
2020/12/14 08:17:46;;;;;;;9.47;8.20;;;4.00;99.90;;;;;;4953303;29;20314;-43
2020/12/14 08:20:28;;;;;;;8.80;8.00;;;4.00;99.90;;;;;;4953221;29;20238;-41
2020/12/14 08:22:57;;;;;;;10.83;7.60;;;4.00;99.90;;;;;;4953033;28;20243;-42
2020/12/14 08:25:26;;;;;;;10.07;7.70;;;4.00;99.90;;;;;;4953479;29;20218;-41
2020/12/14 08:27:55;;;;;;;7.60;6.90;;;4.00;99.90;;;;;;4953550;29;20405;-41
2020/12/14 08:30:25;;;;;;;7.87;6.60;;;4.00;99.90;;;;;;4953468;28;20212;-42
2020/12/14 08:33:11;;;;;;;7.80;7.00;;;4.00;99.90;;;;;;4953714;28;20217;-42
2020/12/14 08:35:39;;;;;;;7.87;7.13;;;4.10;99.90;;;;;;4957018;29;20242;-42
2020/12/14 08:38:09;;;;;;;7.40;6.20;;;4.10;99.90;;;;;;4956891;28;20310;-43
2020/12/14 08:40:37;;;;;;;6.90;5.77;;;4.10;99.90;;;;;;4956691;29;20246;-43
2020/12/14 08:43:09;;;;;;;6.70;5.93;;;4.20;99.90;;;;;;4956892;29;20216;-43
2020/12/14 08:45:38;;;;;;;5.63;5.17;;;4.30;99.90;;;;;;4956617;28;20294;-43
2020/12/14 08:48:05;;;;;;;7.20;6.50;;;4.30;99.90;;;;;;4956558;29;20247;-44
2020/12/14 08:50:32;;;;;;;6.50;5.90;;;4.30;99.90;;;;;;4956525;29;20405;-43
2020/12/14 08:53:01;;;;;;;7.20;6.50;;;4.40;99.90;;;;;;4956605;29;20239;-43
2020/12/14 08:55:38;;;;;;;6.70;6.07;;;4.40;99.90;;;;;;4956490;29;20218;-43
2020/12/14 08:58:06;;;;;;;6.43;5.93;;;4.50;99.90;;;;;;4956236;28;20216;-43
2020/12/14 09:00:33;;;;;;;5.78;5.28;;;4.60;99.90;;;;;;4956057;28;20270;-42
2020/12/14 09:03:01;;;;;;;5.60;4.97;;;4.70;99.90;;;;;;4956208;29;20218;-45
2020/12/14 09:05:33;;;;;;;8.47;7.77;;;4.70;99.90;;;;;;4956226;29;20334;-42
2020/12/14 09:08:11;;;;;;;7.50;5.90;;;4.80;99.90;;;;;;4956316;28;20211;-44
2020/12/14 09:10:39;;;;;;;5.93;5.32;;;4.90;99.90;;;;;;4956072;29;20227;-42
2020/12/14 09:13:07;;;;;;;5.53;5.13;;;4.90;99.90;;;;;;4955940;28;20243;-44
2020/12/14 09:15:36;;;;;;;6.37;5.77;;;5.10;99.90;;;;;;4956220;28;20239;-45
2020/12/14 09:18:05;;;;;;;8.83;7.67;;;5.10;99.90;;;;;;4956025;29;20257;-43
2020/12/14 09:20:32;;;;;;;6.97;6.37;;;5.20;99.90;;;;;;4955842;29;20242;-42
2020/12/14 09:22:59;;;;;;;6.93;6.17;;;5.30;99.90;;;;;;4955862;29;20215;-44
2020/12/14 09:25:26;;;;;;;6.80;6.20;;;5.40;99.90;;;;;;4955911;29;20298;-43
2020/12/14 09:27:54;;;;;;;5.73;4.93;;;5.40;99.90;;;;;;4956137;28;20630;-43
2020/12/14 09:30:21;;;;;;;5.33;4.83;;;5.50;99.90;;;;;;4956018;29;20203;-42
2020/12/14 09:32:48;;;;;;;5.43;4.93;;;5.50;99.90;;;;;;4955660;29;20697;-43
2020/12/14 09:35:16;;;;;;;5.90;5.40;;;5.60;99.90;;;;;;4955488;29;20218;-42
2020/12/14 09:37:43;;;;;;;5.87;5.37;;;5.60;99.90;;;;;;4955497;29;20302;-42
2020/12/14 09:40:10;;;;;;;6.37;5.40;;;5.70;99.90;;;;;;4955554;29;20323;-42
2020/12/14 09:42:37;;;;;;;6.37;5.87;;;5.80;99.90;;;;;;4955508;29;20211;-43
2020/12/14 09:45:05;;;;;;;6.70;6.10;;;5.90;99.90;;;;;;4955209;28;20219;-45
2020/12/14 09:47:33;;;;;;;6.13;5.63;;;6.00;99.90;;;;;;4955425;29;20298;-45
2020/12/14 09:50:00;;;;;;;6.43;5.83;;;6.00;99.90;;;;;;4955154;29;20750;-42
2020/12/14 09:52:27;;;;;;;6.00;5.50;;;6.10;99.90;;;;;;4955378;29;20233;-42
2020/12/14 09:54:54;;;;;;;6.30;5.77;;;6.20;99.90;;;;;;4955369;29;20232;-42
2020/12/14 09:57:21;;;;;;;5.73;5.33;;;6.20;99.90;;;;;;4955489;28;20215;-43
2020/12/14 09:59:48;;;;;;;4.83;4.40;;;6.30;99.90;;;;;;4955147;29;20330;-43
2020/12/14 10:02:16;;;;;;;12.10;10.90;;;6.30;99.90;;;;;;4955179;29;20222;-43
2020/12/14 10:04:44;;;;;;;6.82;6.20;;;6.30;99.90;;;;;;4954926;29;20211;-43
2020/12/14 10:07:11;;;;;;;6.97;5.97;;;6.40;99.90;;;;;;4955025;29;20241;-42
2020/12/14 10:09:38;;;;;;;5.40;4.40;;;6.30;99.90;;;;;;4955069;29;20215;-43
2020/12/14 10:12:05;;;;;;;9.82;8.60;;;6.40;99.90;;;;;;4955183;28;20379;-42
2020/12/14 10:14:33;;;;;;;4.80;4.40;;;6.50;99.90;;;;;;4954907;29;20215;-42
2020/12/14 10:17:00;;;;;;;5.00;4.60;;;6.60;99.90;;;;;;4955046;29;20225;-42
2020/12/14 10:19:29;;;;;;;5.13;4.63;;;6.60;99.90;;;;;;4954898;29;20218;-42
2020/12/14 10:21:57;;;;;;;6.33;5.83;;;6.70;99.90;;;;;;4954736;28;20655;-43
2020/12/14 10:24:24;;;;;;;4.60;4.20;;;6.70;99.90;;;;;;4954960;28;20415;-42
2020/12/14 10:26:51;;;;;;;4.77;4.30;;;6.80;99.90;;;;;;4954928;29;20211;-43
2020/12/14 10:29:19;;;;;;;4.80;4.40;;;6.80;99.90;;;;;;4954763;29;20678;-44
2020/12/14 10:31:48;;;;;;;6.10;5.50;;;6.90;99.90;;;;;;4954710;29;20207;-43
2020/12/14 10:34:15;;;;;;;4.40;4.00;;;6.90;99.90;;;;;;4954356;29;20566;-43
2020/12/14 10:36:45;;;;;;;6.03;4.83;;;7.00;99.90;;;;;;4954623;29;20266;-43
2020/12/14 10:39:13;;;;;;;5.88;4.40;;;7.20;99.90;;;;;;4954683;29;20693;-43
2020/12/14 10:41:40;;;;;;;5.63;5.13;;;7.30;99.90;;;;;;4954587;29;20238;-43
2020/12/14 10:44:07;;;;;;;5.10;4.70;;;7.30;99.90;;;;;;4954602;29;20235;-44
2020/12/14 10:46:35;;;;;;;6.33;4.67;;;7.40;99.90;;;;;;4954296;29;20671;-44
2020/12/14 10:49:02;;;;;;;5.33;4.83;;;7.30;99.90;;;;;;4954182;28;20286;-43
2020/12/14 10:51:29;;;;;;;5.73;5.23;;;7.20;99.90;;;;;;4954134;29;20271;-42
2020/12/14 10:53:57;;;;;;;5.87;4.60;;;7.20;99.90;;;;;;4954397;29;20599;-42
2020/12/14 10:56:24;;;;;;;7.87;5.33;;;7.20;99.90;;;;;;4953730;28;20215;-42
2020/12/14 10:58:51;;;;;;;4.43;4.03;;;7.30;99.90;;;;;;4954257;28;20215;-45
2020/12/14 11:01:18;;;;;;;5.07;4.68;;;7.40;99.90;;;;;;4953989;29;20327;-47
2020/12/14 11:03:45;;;;;;;4.30;3.90;;;7.40;99.90;;;;;;4954115;28;20216;-43
2020/12/14 11:06:12;;;;;;;5.07;4.30;;;7.60;99.90;;;;;;4954239;29;20223;-45
2020/12/14 11:08:39;;;;;;;5.13;4.63;;;7.60;99.90;;;;;;4953973;29;20679;-46
2020/12/14 11:11:07;;;;;;;6.23;4.70;;;7.70;99.90;;;;;;4954049;29;20231;-42
2020/12/14 11:13:34;;;;;;;5.20;3.80;;;7.80;99.90;;;;;;4953869;29;20267;-44
2020/12/14 11:16:01;;;;;;;6.30;5.47;;;7.90;99.90;;;;;;4953923;29;20218;-44
2020/12/14 11:18:29;;;;;;;4.93;4.53;;;8.00;99.90;;;;;;4954265;29;20215;-45
2020/12/14 11:20:56;;;;;;;5.25;4.75;;;8.00;99.90;;;;;;4955130;28;20230;-43
2020/12/14 11:23:23;;;;;;;7.17;6.57;;;8.10;99.90;;;;;;4953955;29;20305;-42
2020/12/14 11:25:50;;;;;;;7.10;4.60;;;8.20;99.90;;;;;;4953964;28;20208;-42
2020/12/14 11:28:19;;;;;;;4.90;4.50;;;8.20;99.90;;;;;;4953776;29;20207;-42
2020/12/14 11:30:46;;;;;;;4.30;4.00;;;8.10;99.90;;;;;;4955066;29;20289;-42
2020/12/14 11:33:13;;;;;;;5.37;4.97;;;8.10;99.90;;;;;;4953822;28;20643;-41
2020/12/14 11:35:40;;;;;;;4.65;4.25;;;8.10;99.90;;;;;;4953767;29;20216;-41
2020/12/14 11:38:07;;;;;;;4.85;4.18;;;8.10;99.90;;;;;;4953735;28;20238;-41
2020/12/14 11:40:34;;;;;;;4.17;3.73;;;8.20;99.90;;;;;;4953648;28;20227;-42
2020/12/14 11:43:01;;;;;;;4.68;4.28;;;8.30;99.90;;;;;;4953588;29;20738;-46
2020/12/14 11:45:49;;;;;;;4.30;3.90;;;8.40;99.90;;;;;;4953924;29;20528;-45
2020/12/14 11:48:16;;;;;;;4.43;3.75;;;8.30;99.90;;;;;;4953635;29;20646;-41
2020/12/14 11:50:44;;;;;;;3.75;3.45;;;8.30;99.90;;;;;;4953887;28;20239;-41
2020/12/14 11:53:11;;;;;;;3.83;3.53;;;8.30;99.90;;;;;;4953613;28;20207;-42
2020/12/14 11:55:39;;;;;;;4.30;3.83;;;8.40;99.90;;;;;;4953717;29;20306;-43
2020/12/14 11:58:07;;;;;;;3.67;3.38;;;8.50;99.90;;;;;;4953739;29;20211;-42
2020/12/14 12:00:34;;;;;;;3.80;3.50;;;8.70;99.90;;;;;;4953588;29;20274;-43
2020/12/14 12:03:02;;;;;;;4.00;3.60;;;8.60;99.90;;;;;;4954853;29;20218;-44
2020/12/14 12:05:29;;;;;;;4.65;4.18;;;8.50;99.90;;;;;;4953606;29;20306;-43
2020/12/14 12:07:56;;;;;;;4.78;4.30;;;8.40;99.90;;;;;;4955383;28;20251;-45
2020/12/14 12:10:24;;;;;;;4.20;3.73;;;8.40;99.90;;;;;;4957425;29;20247;-44
2020/12/14 12:12:50;;;;;;;4.90;3.75;;;8.50;99.90;;;;;;4957015;29;20222;-43
2020/12/14 12:15:18;;;;;;;4.90;4.37;;;8.50;99.90;;;;;;4957284;29;20222;-44
2020/12/14 12:17:45;;;;;;;4.20;3.90;;;8.60;99.90;;;;;;4957538;28;20258;-43
2020/12/14 12:20:13;;;;;;;5.47;3.60;;;8.70;99.90;;;;;;4957206;29;20710;-45
2020/12/14 12:22:40;;;;;;;6.90;4.22;;;8.70;99.90;;;;;;4957042;28;20266;-42
2020/12/14 12:25:07;;;;;;;4.20;3.80;;;8.70;99.90;;;;;;4956878;29;20242;-43
2020/12/14 12:27:34;;;;;;;4.28;3.92;;;8.70;99.90;;;;;;4956994;29;20285;-44
2020/12/14 12:30:01;;;;;;;5.87;4.17;;;8.70;99.90;;;;;;4957013;29;20314;-44
2020/12/14 12:32:28;;;;;;;4.45;3.70;;;8.70;99.90;;;;;;4956938;29;20303;-44
2020/12/14 12:34:55;;;;;;;4.68;3.30;;;8.80;99.90;;;;;;4956906;29;20336;-44
2020/12/14 12:37:24;;;;;;;4.93;3.03;;;8.80;99.90;;;;;;4957107;29;20270;-46
2020/12/14 12:39:51;;;;;;;4.67;3.60;;;8.80;99.90;;;;;;4956881;29;20246;-43
2020/12/14 12:42:18;;;;;;;4.37;3.97;;;8.80;99.90;;;;;;4956850;29;20253;-44
2020/12/14 12:44:46;;;;;;;4.05;3.75;;;8.80;99.90;;;;;;4957925;29;20211;-44
2020/12/14 12:47:13;;;;;;;5.37;4.40;;;8.90;99.90;;;;;;4957388;28;20587;-42
2020/12/14 12:49:42;;;;;;;8.07;4.45;;;8.90;99.90;;;;;;4957028;28;20218;-44
2020/12/14 12:52:10;;;;;;;6.05;5.55;;;9.00;99.90;;;;;;4957607;28;20215;-43
2020/12/14 12:54:39;;;;;;;5.20;4.68;;;9.00;99.90;;;;;;4957458;28;20262;-45
2020/12/14 12:57:07;;;;;;;4.97;4.47;;;9.00;99.90;;;;;;4957352;29;20679;-44
2020/12/14 12:59:35;;;;;;;5.53;4.35;;;9.10;99.90;;;;;;4957001;28;20394;-44